createdAt,value
2022-10-05T00:00:16.063Z,96.60
2022-10-05T00:02:44.818Z,96.60
2022-10-05T00:05:26.650Z,96.30
2022-10-05T00:07:55.824Z,96.40
2022-10-05T00:10:25.287Z,96.30
2022-10-05T00:12:53.411Z,96.60
2022-10-05T00:15:23.412Z,97.00
2022-10-05T00:17:51.431Z,96.80
2022-10-05T00:20:23.166Z,96.90
2022-10-05T00:22:56.656Z,96.90
2022-10-05T00:25:26.422Z,96.60
2022-10-05T00:27:57.473Z,96.50
2022-10-05T00:30:27.362Z,96.50
2022-10-05T00:32:59.452Z,96.50
2022-10-05T00:35:29.466Z,96.60
2022-10-05T00:37:57.784Z,96.70
2022-10-05T00:40:36.555Z,96.90
2022-10-05T00:43:31.621Z,96.80
2022-10-05T00:46:07.862Z,96.70
2022-10-05T00:48:41.404Z,96.60
2022-10-05T00:51:19.922Z,96.60
2022-10-05T00:53:55.542Z,96.70
2022-10-05T00:56:37.670Z,96.50
2022-10-05T00:59:16.113Z,96.50
2022-10-05T01:01:52.019Z,96.40
2022-10-05T01:04:26.469Z,96.30
2022-10-05T01:07:05.383Z,96.40
2022-10-05T01:09:44.496Z,96.50
2022-10-05T01:12:19.312Z,96.10
2022-10-05T01:14:56.976Z,96.40
2022-10-05T01:17:29.728Z,96.40
2022-10-05T01:20:17.906Z,96.10
2022-10-05T01:23:14.843Z,95.90
2022-10-05T01:25:57.087Z,96.00
2022-10-05T01:28:30.750Z,96.20
2022-10-05T01:31:07.848Z,96.40
2022-10-05T01:33:43.586Z,96.70
2022-10-05T01:36:19.343Z,96.80
2022-10-05T01:38:54.699Z,97.20
2022-10-05T01:41:33.680Z,97.20
2022-10-05T01:44:08.583Z,97.10
2022-10-05T01:46:41.888Z,97.40
2022-10-05T01:49:28.603Z,97.20
2022-10-05T01:52:06.582Z,97.30
2022-10-05T01:54:45.292Z,97.10
2022-10-05T01:57:23.249Z,97.10
2022-10-05T02:00:04.863Z,97.10
2022-10-05T02:02:38.303Z,97.50
2022-10-05T02:05:11.676Z,97.20
2022-10-05T02:07:43.522Z,97.30
2022-10-05T02:10:22.072Z,97.00
2022-10-05T02:12:54.147Z,97.30
2022-10-05T02:15:27.856Z,97.10
2022-10-05T02:18:15.599Z,97.30
2022-10-05T02:20:44.792Z,97.60
2022-10-05T02:23:17.089Z,97.50
2022-10-05T02:25:47.664Z,97.60
2022-10-05T02:28:21.523Z,97.40
2022-10-05T02:30:55.599Z,97.30
2022-10-05T02:33:29.470Z,97.40
2022-10-05T02:36:02.495Z,97.60
2022-10-05T02:38:38.379Z,97.40
2022-10-05T02:41:15.406Z,97.50
2022-10-05T02:43:51.693Z,97.50
2022-10-05T02:46:28.636Z,97.80
2022-10-05T02:49:09.923Z,97.40
2022-10-05T02:51:46.907Z,97.80
2022-10-05T02:54:23.520Z,97.90
2022-10-05T02:56:57.513Z,97.90
2022-10-05T02:59:32.750Z,97.60
2022-10-05T03:02:08.948Z,97.40
2022-10-05T03:04:43.694Z,97.20
2022-10-05T03:07:17.089Z,97.50
2022-10-05T03:09:50.358Z,97.60
2022-10-05T03:12:35.087Z,97.80
2022-10-05T03:15:19.567Z,97.90
2022-10-05T03:17:58.818Z,98.20
2022-10-05T03:20:37.640Z,98.20
2022-10-05T03:23:08.455Z,98.20
2022-10-05T03:26:03.331Z,98.20
2022-10-05T03:28:40.724Z,98.10
2022-10-05T03:31:19.341Z,98.00
2022-10-05T03:33:53.930Z,98.20
2022-10-05T03:36:27.888Z,98.20
2022-10-05T03:39:03.556Z,98.20
2022-10-05T03:41:41.068Z,98.00
2022-10-05T03:44:27.395Z,98.00
2022-10-05T03:47:08.222Z,97.90
2022-10-05T03:50:03.938Z,98.20
2022-10-05T03:52:38.130Z,98.30
2022-10-05T03:55:16.754Z,99.00
2022-10-05T03:57:45.692Z,98.70
2022-10-05T04:00:17.516Z,98.30
2022-10-05T04:02:52.230Z,98.50
2022-10-05T04:05:25.768Z,98.60
2022-10-05T04:08:00.303Z,98.20
2022-10-05T04:10:34.015Z,98.00
2022-10-05T04:13:07.934Z,98.30
2022-10-05T04:15:42.532Z,98.70
2022-10-05T04:18:22.070Z,98.70
2022-10-05T04:20:55.681Z,98.80
2022-10-05T04:23:35.208Z,98.90
2022-10-05T04:26:07.452Z,99.20
2022-10-05T04:28:43.868Z,98.90
2022-10-05T04:31:14.874Z,98.30
2022-10-05T04:33:50.047Z,98.60
2022-10-05T04:36:25.355Z,98.70
2022-10-05T04:39:06.674Z,98.10
2022-10-05T04:41:57.647Z,98.40
2022-10-05T04:44:49.263Z,98.80
2022-10-05T04:47:46.795Z,98.50
2022-10-05T04:50:24.147Z,98.70
2022-10-05T04:53:04.465Z,99.00
2022-10-05T04:55:38.981Z,98.80
2022-10-05T04:58:20.270Z,99.00
2022-10-05T05:01:01.485Z,98.50
2022-10-05T05:04:00.645Z,98.80
2022-10-05T05:06:36.803Z,98.80
2022-10-05T05:09:18.836Z,98.80
2022-10-05T05:11:57.316Z,98.60
2022-10-05T05:14:48.950Z,99.10
2022-10-05T05:17:33.174Z,99.10
2022-10-05T05:20:15.199Z,99.20
2022-10-05T05:22:49.756Z,99.00
2022-10-05T05:25:32.415Z,98.60
2022-10-05T05:28:12.550Z,98.80
2022-10-05T05:30:47.155Z,98.50
2022-10-05T05:33:24.255Z,98.70
2022-10-05T05:36:23.415Z,98.60
2022-10-05T05:39:02.859Z,98.60
2022-10-05T05:41:39.040Z,98.90
2022-10-05T05:44:20.567Z,98.80
2022-10-05T05:47:03.456Z,98.70
2022-10-05T05:49:43.096Z,98.40
2022-10-05T05:52:19.321Z,98.50
2022-10-05T05:54:53.509Z,98.60
2022-10-05T05:57:28.033Z,98.40
2022-10-05T06:00:06.498Z,98.90
2022-10-05T06:02:42.696Z,98.60
2022-10-05T06:05:27.026Z,98.40
2022-10-05T06:07:57.828Z,98.70
2022-10-05T06:10:33.733Z,98.70
2022-10-05T06:13:09.423Z,98.40
2022-10-05T06:15:42.360Z,98.50
2022-10-05T06:18:12.959Z,98.30
2022-10-05T06:20:45.391Z,98.40
2022-10-05T06:23:18.210Z,98.70
2022-10-05T06:25:59.362Z,98.80
2022-10-05T06:28:30.877Z,98.80
2022-10-05T06:31:08.347Z,98.70
2022-10-05T06:33:48.609Z,98.50
2022-10-05T06:36:30.131Z,98.40
2022-10-05T06:39:17.180Z,98.80
2022-10-05T06:41:57.138Z,99.30
2022-10-05T06:44:31.441Z,99.20
2022-10-05T06:47:10.784Z,99.30
2022-10-05T06:49:50.442Z,99.50
2022-10-05T06:52:27.563Z,98.70
2022-10-05T06:55:14.343Z,99.50
2022-10-05T06:57:59.848Z,99.00
2022-10-05T07:00:36.339Z,99.60
2022-10-05T07:03:16.532Z,99.40
2022-10-05T07:05:53.551Z,99.10
2022-10-05T07:08:29.659Z,99.60
2022-10-05T07:11:06.064Z,99.30
2022-10-05T07:13:58.301Z,99.10
2022-10-05T07:16:37.511Z,99.80
2022-10-05T07:19:16.026Z,99.80
2022-10-05T07:21:50.496Z,98.90
2022-10-05T07:24:31.657Z,99.20
2022-10-05T07:27:10.628Z,99.50
2022-10-05T07:29:45.855Z,99.90
2022-10-05T07:32:29.138Z,99.60
2022-10-05T07:35:05.008Z,99.70
2022-10-05T07:37:57.598Z,99.80
2022-10-05T07:40:31.813Z,99.30
2022-10-05T07:43:06.811Z,99.80
2022-10-05T07:45:45.502Z,99.10
2022-10-05T07:48:20.174Z,99.50
2022-10-05T07:50:59.714Z,99.80
2022-10-05T07:53:33.692Z,99.50
2022-10-05T07:56:06.627Z,99.30
2022-10-05T07:58:43.892Z,99.70
2022-10-05T08:01:19.196Z,99.40
2022-10-05T08:03:56.127Z,99.80
2022-10-05T08:06:48.116Z,99.80
2022-10-05T08:09:38.708Z,99.90
2022-10-05T08:12:19.621Z,99.50
2022-10-05T08:14:53.965Z,99.90
2022-10-05T08:17:31.866Z,99.90
2022-10-05T08:20:17.318Z,99.90
2022-10-05T08:22:48.898Z,99.90
2022-10-05T08:25:25.557Z,99.80
2022-10-05T08:28:00.645Z,99.90
2022-10-05T08:30:31.631Z,99.90
2022-10-05T08:33:08.371Z,99.90
2022-10-05T08:35:40.496Z,99.90
2022-10-05T08:38:15.630Z,99.90
2022-10-05T08:41:30.154Z,99.90
2022-10-05T08:44:25.262Z,99.90
2022-10-05T08:47:16.449Z,99.90
2022-10-05T08:50:15.921Z,99.90
2022-10-05T08:53:09.694Z,99.90
2022-10-05T08:55:53.091Z,99.90
2022-10-05T08:58:59.816Z,99.90
2022-10-05T09:01:41.818Z,99.90
2022-10-05T09:04:31.714Z,99.90
2022-10-05T09:07:13.905Z,99.70
2022-10-05T09:10:20.602Z,99.20
2022-10-05T09:13:21.193Z,99.50
2022-10-05T09:16:20.858Z,99.60
2022-10-05T09:19:02.406Z,99.50
2022-10-05T09:21:41.934Z,99.50
2022-10-05T09:24:27.611Z,99.30
2022-10-05T09:27:12.958Z,98.50
2022-10-05T09:30:05.961Z,98.90
2022-10-05T09:33:10.633Z,97.90
2022-10-05T09:36:17.475Z,97.50
2022-10-05T09:39:21.387Z,97.00
2022-10-05T09:42:27.153Z,97.30
2022-10-05T09:45:36.219Z,97.40
2022-10-05T09:48:25.859Z,97.10
2022-10-05T09:51:18.408Z,96.80
2022-10-05T09:54:28.873Z,96.50
2022-10-05T09:57:23.646Z,96.50
2022-10-05T10:00:16.155Z,96.70
2022-10-05T10:03:13.191Z,96.80
2022-10-05T10:06:05.344Z,96.80
2022-10-05T10:08:43.407Z,96.80
2022-10-05T10:11:38.319Z,97.00
2022-10-05T10:14:32.457Z,95.80
2022-10-05T10:17:26.574Z,95.90
2022-10-05T10:20:15.681Z,96.00
2022-10-05T10:23:19.151Z,96.30
2022-10-05T10:26:30.383Z,96.30
2022-10-05T10:29:30.379Z,96.00
2022-10-05T10:32:18.531Z,95.30
2022-10-05T10:35:09.151Z,95.60
2022-10-05T10:37:58.541Z,95.70
2022-10-05T10:40:35.821Z,95.90
2022-10-05T10:43:45.098Z,96.10
2022-10-05T10:46:29.134Z,96.00
2022-10-05T10:49:02.493Z,96.00
2022-10-05T10:52:11.532Z,96.50
2022-10-05T10:55:13.490Z,95.90
2022-10-05T10:58:00.098Z,96.00
2022-10-05T11:00:54.406Z,95.30
2022-10-05T11:03:59.746Z,95.70
2022-10-05T11:06:42.939Z,95.70
2022-10-05T11:09:39.232Z,96.10
2022-10-05T11:12:53.127Z,95.20
2022-10-05T11:15:51.917Z,95.10
2022-10-05T11:18:27.187Z,95.20
2022-10-05T11:21:23.872Z,94.60
2022-10-05T11:24:24.148Z,95.10
2022-10-05T11:27:08.968Z,95.10
2022-10-05T11:30:16.249Z,95.00
2022-10-05T11:33:25.106Z,94.80
2022-10-05T11:36:24.330Z,95.10
2022-10-05T11:39:28.622Z,94.80
2022-10-05T11:42:44.308Z,95.10
2022-10-05T11:45:24.162Z,94.90
2022-10-05T11:48:24.622Z,95.00
2022-10-05T11:51:19.154Z,94.80
2022-10-05T11:53:53.497Z,94.60
2022-10-05T11:59:01.525Z,95.20
2022-10-05T12:01:34.759Z,95.30
2022-10-05T12:04:15.122Z,95.30
2022-10-05T12:06:58.687Z,95.80
2022-10-05T12:10:01.838Z,95.00
2022-10-05T12:12:37.738Z,95.00
2022-10-05T12:15:19.565Z,95.30
2022-10-05T12:17:53.468Z,95.30
2022-10-05T12:20:26.234Z,95.50
2022-10-05T12:23:00.077Z,95.30
2022-10-05T12:25:33.899Z,94.80
2022-10-05T12:28:07.224Z,95.00
2022-10-05T12:30:58.093Z,95.40
2022-10-05T12:33:34.330Z,95.00
2022-10-05T12:36:08.855Z,95.10
2022-10-05T12:38:42.835Z,95.10
2022-10-05T12:41:19.646Z,95.30
2022-10-05T12:44:02.394Z,95.30
2022-10-05T12:46:39.535Z,94.70
2022-10-05T12:49:40.352Z,94.10
2022-10-05T12:57:07.170Z,94.20
2022-10-05T12:59:43.818Z,94.40
2022-10-05T13:02:26.808Z,94.30
2022-10-05T13:05:00.717Z,94.30
2022-10-05T13:07:49.957Z,94.00
2022-10-05T13:10:28.162Z,94.50
2022-10-05T13:13:10.770Z,94.60
2022-10-05T13:15:50.717Z,94.50
2022-10-05T13:18:25.935Z,94.40
2022-10-05T13:21:03.970Z,94.20
2022-10-05T13:23:42.201Z,94.60
2022-10-05T13:26:13.559Z,94.20
2022-10-05T13:28:47.877Z,94.30
2022-10-05T13:31:23.516Z,94.30
2022-10-05T13:34:07.041Z,94.10
2022-10-05T13:36:47.979Z,94.20
2022-10-05T13:39:26.684Z,94.30
2022-10-05T13:42:00.244Z,94.30
2022-10-05T13:44:37.277Z,94.20
2022-10-05T13:47:15.754Z,94.40
2022-10-05T13:49:50.471Z,94.00
2022-10-05T13:52:32.079Z,94.20
2022-10-05T13:55:08.056Z,94.50
2022-10-05T13:57:46.906Z,94.60
2022-10-05T14:00:22.599Z,94.30
2022-10-05T14:02:58.348Z,94.30
2022-10-05T14:05:28.686Z,94.30
2022-10-05T14:07:59.077Z,94.20
2022-10-05T14:10:35.074Z,94.20
2022-10-05T14:13:18.138Z,94.10
2022-10-05T14:15:59.637Z,94.00
2022-10-05T14:18:31.303Z,94.30
2022-10-05T14:21:02.099Z,94.40
2022-10-05T14:23:30.717Z,94.10
2022-10-05T14:25:59.597Z,94.00
2022-10-05T14:28:31.262Z,94.10
2022-10-05T14:31:01.771Z,94.10
2022-10-05T14:33:35.947Z,93.90
2022-10-05T14:36:04.946Z,93.90
2022-10-05T14:38:44.986Z,93.80
2022-10-05T14:41:21.275Z,94.00
2022-10-05T14:43:55.907Z,93.90
2022-10-05T14:46:29.836Z,94.00
2022-10-05T14:49:22.554Z,93.80
2022-10-05T14:51:51.487Z,94.00
2022-10-05T14:54:48.200Z,94.10
2022-10-05T14:57:25.233Z,94.20
2022-10-05T15:00:12.610Z,94.30
2022-10-05T15:03:15.731Z,94.10
2022-10-05T15:05:49.906Z,94.00
2022-10-05T15:08:53.375Z,94.00
2022-10-05T15:11:30.869Z,94.10
2022-10-05T15:14:00.457Z,94.30
2022-10-05T15:16:34.179Z,94.20
2022-10-05T15:19:13.570Z,94.10
2022-10-05T15:21:58.054Z,94.10
2022-10-05T15:24:29.836Z,94.20
2022-10-05T15:26:59.385Z,94.20
2022-10-05T15:29:54.815Z,94.20
2022-10-05T15:32:34.363Z,94.10
2022-10-05T15:35:30.600Z,94.00
2022-10-05T15:38:07.380Z,93.90
2022-10-05T15:40:40.425Z,93.90
2022-10-05T15:43:14.227Z,93.80
2022-10-05T15:45:53.742Z,93.90
2022-10-05T15:48:29.143Z,93.90
2022-10-05T15:51:05.587Z,93.90
2022-10-05T15:53:44.879Z,93.90
2022-10-05T15:56:21.558Z,94.00
2022-10-05T15:58:55.788Z,94.00
2022-10-05T16:01:40.243Z,94.00
2022-10-05T16:04:15.535Z,94.10
2022-10-05T16:07:06.948Z,94.10
2022-10-05T16:09:45.746Z,94.10
2022-10-05T16:12:39.057Z,94.10
2022-10-05T16:15:26.365Z,94.10
2022-10-05T16:18:13.420Z,94.20
2022-10-05T16:20:51.052Z,94.40
2022-10-05T16:23:29.699Z,94.90
2022-10-05T16:26:12.534Z,95.20
2022-10-05T16:28:50.319Z,95.10
2022-10-05T16:31:23.093Z,95.00
2022-10-05T16:34:02.158Z,95.10
2022-10-05T16:36:44.461Z,95.40
2022-10-05T16:39:18.949Z,95.30
2022-10-05T16:41:55.208Z,95.20
2022-10-05T16:44:35.247Z,95.20
2022-10-05T16:47:09.837Z,95.30
2022-10-05T16:49:44.194Z,95.40
2022-10-05T16:52:16.316Z,95.60
2022-10-05T16:54:49.607Z,95.80
2022-10-05T16:57:23.190Z,96.10
2022-10-05T17:00:13.447Z,96.10
2022-10-05T17:02:58.716Z,96.60
2022-10-05T17:05:44.950Z,96.30
2022-10-05T17:08:42.952Z,96.10
2022-10-05T17:11:24.798Z,96.10
2022-10-05T17:14:05.214Z,96.00
2022-10-05T17:16:44.845Z,96.10
2022-10-05T17:19:53.166Z,96.10
2022-10-05T17:22:27.889Z,96.50
2022-10-05T17:25:03.309Z,96.40
2022-10-05T17:27:35.345Z,96.40
2022-10-05T17:30:46.530Z,96.60
2022-10-05T17:33:24.799Z,96.70
2022-10-05T17:35:58.196Z,96.60
2022-10-05T17:38:50.286Z,96.60
2022-10-05T17:41:20.989Z,96.40
2022-10-05T17:44:19.226Z,96.60
2022-10-05T17:46:50.770Z,96.80
2022-10-05T17:49:26.728Z,96.80
2022-10-05T17:52:18.468Z,96.60
2022-10-05T17:55:27.367Z,96.60
2022-10-05T17:57:59.816Z,96.70
2022-10-05T18:01:09.611Z,96.50
2022-10-05T18:03:43.641Z,96.60
2022-10-05T18:06:37.132Z,96.60
2022-10-05T18:09:51.568Z,96.60
2022-10-05T18:12:42.642Z,96.50
2022-10-05T18:15:46.610Z,96.70
2022-10-05T18:18:35.117Z,96.70
2022-10-05T18:21:40.344Z,97.00
2022-10-05T18:24:34.247Z,97.10
2022-10-05T18:27:16.997Z,97.00
2022-10-05T18:30:05.758Z,97.10
2022-10-05T18:32:54.303Z,97.10
2022-10-05T18:35:27.190Z,97.20
2022-10-05T18:38:05.487Z,97.20
2022-10-05T18:40:43.245Z,97.20
2022-10-05T18:43:29.029Z,97.20
2022-10-05T18:46:16.239Z,97.10
2022-10-05T18:48:51.537Z,97.30
2022-10-05T18:51:27.991Z,97.30
2022-10-05T18:54:10.028Z,97.30
2022-10-05T18:56:42.647Z,97.30
2022-10-05T18:59:36.593Z,97.30
2022-10-05T19:02:24.151Z,97.30
2022-10-05T19:05:04.399Z,97.30
2022-10-05T19:07:44.748Z,97.30
2022-10-05T19:10:24.838Z,97.50
2022-10-05T19:13:12.376Z,97.50
2022-10-05T19:15:47.625Z,97.50
2022-10-05T19:18:36.409Z,97.50
2022-10-05T19:21:17.929Z,97.50
2022-10-05T19:24:05.320Z,97.60
2022-10-05T19:26:54.625Z,97.70
2022-10-05T19:29:37.194Z,97.70
2022-10-05T19:32:14.199Z,97.60
2022-10-05T19:34:57.789Z,97.50
2022-10-05T19:37:35.455Z,97.40
2022-10-05T19:40:11.004Z,97.60
2022-10-05T19:42:55.651Z,97.60
2022-10-05T19:45:26.168Z,97.50
2022-10-05T19:48:10.514Z,97.40
2022-10-05T19:50:40.381Z,97.60
2022-10-05T19:53:15.423Z,97.40
2022-10-05T19:55:45.738Z,97.60
2022-10-05T19:58:24.776Z,97.40
2022-10-05T20:00:58.169Z,97.20
2022-10-05T20:03:29.435Z,97.30
2022-10-05T20:05:58.933Z,97.30
2022-10-05T20:08:31.694Z,97.40
2022-10-05T20:11:12.539Z,97.30
2022-10-05T20:13:43.674Z,97.20
2022-10-05T20:16:39.079Z,97.30
2022-10-05T20:19:50.108Z,97.30
2022-10-05T20:22:30.033Z,97.30
2022-10-05T20:25:00.192Z,97.30
2022-10-05T20:27:48.918Z,97.40
2022-10-05T20:30:20.207Z,97.40
2022-10-05T20:32:57.501Z,97.80
2022-10-05T20:35:27.788Z,97.60
2022-10-05T20:37:59.021Z,97.50
2022-10-05T20:40:27.502Z,97.60
2022-10-05T20:42:55.781Z,97.50
2022-10-05T20:45:25.245Z,97.30
2022-10-05T20:47:53.276Z,97.10
2022-10-05T20:50:22.821Z,97.30
2022-10-05T20:52:51.205Z,97.40
2022-10-05T20:55:20.677Z,97.30
2022-10-05T20:57:48.620Z,97.30
2022-10-05T21:00:16.770Z,97.30
2022-10-05T21:02:46.815Z,97.20
2022-10-05T21:05:15.466Z,97.30
2022-10-05T21:07:43.431Z,97.30
2022-10-05T21:10:11.484Z,97.30
2022-10-05T21:12:39.429Z,97.50
2022-10-05T21:15:07.999Z,97.40
2022-10-05T21:17:37.951Z,97.90
2022-10-05T21:20:11.223Z,97.80
2022-10-05T21:22:39.301Z,97.90
2022-10-05T21:25:08.895Z,97.70
2022-10-05T21:27:36.895Z,97.50
2022-10-05T21:30:05.708Z,97.50
2022-10-05T21:32:33.713Z,97.20
2022-10-05T21:35:01.675Z,97.20
2022-10-05T21:37:31.092Z,97.20
2022-10-05T21:39:59.108Z,97.20
2022-10-05T21:42:27.719Z,97.10
2022-10-05T21:44:55.731Z,97.30
2022-10-05T21:47:23.836Z,97.20
2022-10-05T21:49:51.857Z,97.10
2022-10-05T21:52:19.969Z,96.90
2022-10-05T21:54:49.404Z,96.90
2022-10-05T21:57:18.009Z,96.80
2022-10-05T21:59:46.254Z,96.80
2022-10-05T22:02:14.274Z,96.80
2022-10-05T22:04:42.228Z,96.80
2022-10-05T22:07:19.007Z,96.90
2022-10-05T22:09:49.479Z,96.90
2022-10-05T22:12:19.700Z,96.90
2022-10-05T22:14:47.673Z,97.30
2022-10-05T22:17:19.574Z,97.20
2022-10-05T22:19:47.573Z,97.20
2022-10-05T22:22:15.732Z,97.20
2022-10-05T22:24:43.786Z,97.40
2022-10-05T22:27:13.355Z,97.30
2022-10-05T22:29:41.695Z,97.10
2022-10-05T22:32:10.033Z,97.30
2022-10-05T22:34:38.096Z,97.20
2022-10-05T22:37:07.275Z,97.10
2022-10-05T22:39:35.300Z,97.80
2022-10-05T22:42:03.225Z,98.30
2022-10-05T22:44:33.087Z,98.10
2022-10-05T22:47:01.546Z,98.30
2022-10-05T22:49:29.533Z,98.40
2022-10-05T22:51:57.473Z,97.60
2022-10-05T22:54:29.432Z,97.70
2022-10-05T22:56:58.543Z,98.10
2022-10-05T22:59:26.515Z,98.10
2022-10-05T23:01:55.955Z,98.00
2022-10-05T23:04:24.227Z,98.10
2022-10-05T23:06:52.163Z,98.00
2022-10-05T23:09:20.142Z,98.00
2022-10-05T23:11:51.932Z,98.00
2022-10-05T23:14:20.032Z,98.10
2022-10-05T23:16:48.438Z,98.00
2022-10-05T23:19:17.877Z,97.70
2022-10-05T23:21:45.878Z,97.90
2022-10-05T23:24:13.926Z,98.40
2022-10-05T23:26:41.886Z,98.40
2022-10-05T23:29:09.946Z,98.60
2022-10-05T23:31:37.882Z,98.50
2022-10-05T23:34:05.849Z,98.50
2022-10-05T23:36:35.881Z,98.70
2022-10-05T23:39:04.160Z,98.40
2022-10-05T23:41:32.156Z,98.10
2022-10-05T23:44:00.134Z,98.40
2022-10-05T23:46:28.221Z,98.60
2022-10-05T23:48:56.241Z,98.50
2022-10-05T23:51:24.246Z,98.50
2022-10-05T23:53:53.573Z,98.50
2022-10-05T23:56:21.560Z,98.30
2022-10-05T23:58:49.527Z,98.30
